sensor_id;sensor_type;location;lat;lon;timestamp;pressure;altitude;pressure_sealevel;temperature;humidity
61906;BME280;47863;55.766;37.672;2023-03-19T00:01:56;101320.75;;;-2.08;37.93
61906;BME280;47863;55.766;37.672;2023-03-19T00:04:23;101278.63;;;-2.34;37.99
61906;BME280;47863;55.766;37.672;2023-03-19T00:06:49;101265.59;;;-2.37;37.93
61906;BME280;47863;55.766;37.672;2023-03-19T00:09:16;101308.63;;;-2.12;39.34
61906;BME280;47863;55.766;37.672;2023-03-19T00:11:56;101305.22;;;-2.15;39.74
61906;BME280;47863;55.766;37.672;2023-03-19T00:14:23;101302.69;;;-2.18;38.79
61906;BME280;47863;55.766;37.672;2023-03-19T00:16:48;101290.53;;;-2.21;38.16
61906;BME280;47863;55.766;37.672;2023-03-19T00:19:14;101264.06;;;-2.45;37.94
61906;BME280;47863;55.766;37.672;2023-03-19T00:21:40;101262.44;;;-2.50;37.79
61906;BME280;47863;55.766;37.672;2023-03-19T00:24:06;101294.38;;;-2.34;37.72
61906;BME280;47863;55.766;37.672;2023-03-19T00:26:33;101278.16;;;-2.49;37.01
61906;BME280;47863;55.766;37.672;2023-03-19T00:28:59;101292.81;;;-2.42;37.96
61906;BME280;47863;55.766;37.672;2023-03-19T00:31:27;101279.69;;;-2.42;37.97
61906;BME280;47863;55.766;37.672;2023-03-19T00:33:55;101284.97;;;-2.43;37.52
61906;BME280;47863;55.766;37.672;2023-03-19T00:36:39;101278.97;;;-2.47;37.87
61906;BME280;47863;55.766;37.672;2023-03-19T00:39:05;101270.22;;;-2.47;38.50
61906;BME280;47863;55.766;37.672;2023-03-19T00:41:30;101272.06;;;-2.51;37.81
61906;BME280;47863;55.766;37.672;2023-03-19T00:43:57;101272.03;;;-2.49;38.64
61906;BME280;47863;55.766;37.672;2023-03-19T00:46:24;101272.94;;;-2.50;37.80
61906;BME280;47863;55.766;37.672;2023-03-19T00:48:49;101269.50;;;-2.52;38.18
61906;BME280;47863;55.766;37.672;2023-03-19T00:51:18;101272.81;;;-2.46;41.43
61906;BME280;47863;55.766;37.672;2023-03-19T00:53:44;101257.44;;;-2.60;40.57
61906;BME280;47863;55.766;37.672;2023-03-19T00:56:11;101267.69;;;-2.50;39.86
61906;BME280;47863;55.766;37.672;2023-03-19T00:58:37;101268.69;;;-2.54;39.87
61906;BME280;47863;55.766;37.672;2023-03-19T01:01:05;101261.09;;;-2.65;40.07
61906;BME280;47863;55.766;37.672;2023-03-19T01:03:31;101260.09;;;-2.61;40.37
61906;BME280;47863;55.766;37.672;2023-03-19T01:05:57;101266.06;;;-2.54;40.94
61906;BME280;47863;55.766;37.672;2023-03-19T01:08:23;101262.53;;;-2.53;41.97
61906;BME280;47863;55.766;37.672;2023-03-19T01:10:49;101260.81;;;-2.54;41.67
61906;BME280;47863;55.766;37.672;2023-03-19T01:13:14;101260.06;;;-2.60;41.20
61906;BME280;47863;55.766;37.672;2023-03-19T01:15:42;101265.47;;;-2.66;41.44
61906;BME280;47863;55.766;37.672;2023-03-19T01:18:09;101265.41;;;-2.63;43.76
61906;BME280;47863;55.766;37.672;2023-03-19T01:20:36;101264.53;;;-2.63;42.61
61906;BME280;47863;55.766;37.672;2023-03-19T01:23:02;101263.72;;;-2.65;42.39
61906;BME280;47863;55.766;37.672;2023-03-19T01:25:28;101263.84;;;-2.70;42.51
61906;BME280;47863;55.766;37.672;2023-03-19T01:27:54;101259.47;;;-2.71;41.64
61906;BME280;47863;55.766;37.672;2023-03-19T01:30:19;101256.97;;;-2.74;41.44
61906;BME280;47863;55.766;37.672;2023-03-19T01:32:45;101257.06;;;-2.79;40.48
61906;BME280;47863;55.766;37.672;2023-03-19T01:35:11;101174.47;;;-3.28;40.80
61906;BME280;47863;55.766;37.672;2023-03-19T01:37:37;101255.41;;;-2.83;40.60
61906;BME280;47863;55.766;37.672;2023-03-19T01:40:03;101255.38;;;-2.81;41.01
61906;BME280;47863;55.766;37.672;2023-03-19T01:42:31;101228.72;;;-2.99;40.16
61906;BME280;47863;55.766;37.672;2023-03-19T01:44:57;101244.22;;;-2.88;40.25
61906;BME280;47863;55.766;37.672;2023-03-19T01:47:33;101230.63;;;-3.04;41.25
61906;BME280;47863;55.766;37.672;2023-03-19T01:50:00;101224.63;;;-3.09;40.21
61906;BME280;47863;55.766;37.672;2023-03-19T01:52:29;101246.94;;;-2.92;39.88
61906;BME280;47863;55.766;37.672;2023-03-19T01:54:58;101231.34;;;-2.99;40.19
61906;BME280;47863;55.766;37.672;2023-03-19T01:57:27;101228.81;;;-3.00;40.39
61906;BME280;47863;55.766;37.672;2023-03-19T01:59:55;101246.09;;;-2.94;40.97
61906;BME280;47863;55.766;37.672;2023-03-19T02:05:01;101229.75;;;-3.04;41.24
61906;BME280;47863;55.766;37.672;2023-03-19T02:07:31;101164.41;;;-3.45;40.23
61906;BME280;47863;55.766;37.672;2023-03-19T02:09:59;101230.56;;;-3.02;40.82
61906;BME280;47863;55.766;37.672;2023-03-19T02:12:26;101231.50;;;-3.03;40.14
61906;BME280;47863;55.766;37.672;2023-03-19T02:14:52;101210.84;;;-3.15;39.65
61906;BME280;47863;55.766;37.672;2023-03-19T02:17:19;101219.41;;;-3.09;40.40
61906;BME280;47863;55.766;37.672;2023-03-19T02:22:21;101213.28;;;-3.09;40.20
61906;BME280;47863;55.766;37.672;2023-03-19T02:25:10;101216.75;;;-3.07;39.99
61906;BME280;47863;55.766;37.672;2023-03-19T02:27:37;101178.13;;;-3.35;39.60
61906;BME280;47863;55.766;37.672;2023-03-19T02:30:24;101220.41;;;-3.14;38.82
61906;BME280;47863;55.766;37.672;2023-03-19T02:32:50;101181.63;;;-3.36;39.04
61906;BME280;47863;55.766;37.672;2023-03-19T02:35:16;101210.00;;;-3.17;39.66
61906;BME280;47863;55.766;37.672;2023-03-19T02:37:41;101122.22;;;-3.70;38.69
61906;BME280;47863;55.766;37.672;2023-03-19T02:40:13;101171.25;;;-3.39;39.25
61906;BME280;47863;55.766;37.672;2023-03-19T02:42:40;101210.88;;;-3.17;39.03
61906;BME280;47863;55.766;37.672;2023-03-19T02:45:06;101210.91;;;-3.19;39.10
61906;BME280;47863;55.766;37.672;2023-03-19T02:47:33;101214.47;;;-3.21;38.87
61906;BME280;47863;55.766;37.672;2023-03-19T02:49:58;101105.16;;;-3.85;38.95
61906;BME280;47863;55.766;37.672;2023-03-19T02:52:24;101206.63;;;-3.23;39.26
61906;BME280;47863;55.766;37.672;2023-03-19T02:54:50;101203.06;;;-3.20;39.56
61906;BME280;47863;55.766;37.672;2023-03-19T02:57:15;101181.47;;;-3.30;41.89
61906;BME280;47863;55.766;37.672;2023-03-19T02:59:41;101206.31;;;-3.10;41.56
61906;BME280;47863;55.766;37.672;2023-03-19T03:02:06;101209.03;;;-3.13;41.02
61906;BME280;47863;55.766;37.672;2023-03-19T03:04:33;101199.53;;;-3.17;40.38
61906;BME280;47863;55.766;37.672;2023-03-19T03:06:59;101195.31;;;-3.23;40.33
61906;BME280;47863;55.766;37.672;2023-03-19T03:09:25;101202.31;;;-3.24;40.35
61906;BME280;47863;55.766;37.672;2023-03-19T03:11:51;101177.38;;;-3.40;40.52
61906;BME280;47863;55.766;37.672;2023-03-19T03:14:17;101195.50;;;-3.31;39.68
61906;BME280;47863;55.766;37.672;2023-03-19T03:16:43;101156.75;;;-3.54;39.79
61906;BME280;47863;55.766;37.672;2023-03-19T03:19:08;101144.75;;;-3.63;39.48
61906;BME280;47863;55.766;37.672;2023-03-19T03:21:34;101190.41;;;-3.37;39.15
61906;BME280;47863;55.766;37.672;2023-03-19T03:24:00;101189.50;;;-3.36;39.10
61906;BME280;47863;55.766;37.672;2023-03-19T03:26:26;101188.59;;;-3.35;38.88
61906;BME280;47863;55.766;37.672;2023-03-19T03:28:51;101187.66;;;-3.32;38.75
61906;BME280;47863;55.766;37.672;2023-03-19T03:31:17;101177.34;;;-3.39;38.96
61906;BME280;47863;55.766;37.672;2023-03-19T03:33:43;101183.34;;;-3.33;39.26
61906;BME280;47863;55.766;37.672;2023-03-19T03:36:10;101183.50;;;-3.40;39.46
61906;BME280;47863;55.766;37.672;2023-03-19T03:38:36;101189.56;;;-3.37;39.30
61906;BME280;47863;55.766;37.672;2023-03-19T03:41:02;101189.59;;;-3.39;38.82
61906;BME280;47863;55.766;37.672;2023-03-19T03:43:27;101156.09;;;-3.62;39.72
61906;BME280;47863;55.766;37.672;2023-03-19T03:45:53;101188.84;;;-3.46;39.91
61906;BME280;47863;55.766;37.672;2023-03-19T03:48:18;101183.63;;;-3.46;40.20
61906;BME280;47863;55.766;37.672;2023-03-19T03:50:44;101184.50;;;-3.45;39.94
61906;BME280;47863;55.766;37.672;2023-03-19T03:53:10;101115.56;;;-3.83;39.38
61906;BME280;47863;55.766;37.672;2023-03-19T03:55:37;101185.34;;;-3.45;39.54
61906;BME280;47863;55.766;37.672;2023-03-19T03:58:03;101179.16;;;-3.42;39.28
61906;BME280;47863;55.766;37.672;2023-03-19T04:00:29;101177.41;;;-3.42;39.96
61906;BME280;47863;55.766;37.672;2023-03-19T04:02:54;101173.09;;;-3.44;39.95
61906;BME280;47863;55.766;37.672;2023-03-19T04:05:20;101184.16;;;-3.31;41.60
61906;BME280;47863;55.766;37.672;2023-03-19T04:07:46;101171.13;;;-3.34;41.34
61906;BME280;47863;55.766;37.672;2023-03-19T04:10:12;101162.94;;;-3.22;42.15
61906;BME280;47863;55.766;37.672;2023-03-19T04:12:39;101165.63;;;-2.91;42.25
61906;BME280;47863;55.766;37.672;2023-03-19T04:15:08;101170.97;;;-2.63;41.57
61906;BME280;47863;55.766;37.672;2023-03-19T04:17:34;101163.00;;;-2.30;40.94
61906;BME280;47863;55.766;37.672;2023-03-19T04:20:03;101168.34;;;-2.03;41.09
61906;BME280;47863;55.766;37.672;2023-03-19T04:22:29;101167.44;;;-2.02;40.56
61906;BME280;47863;55.766;37.672;2023-03-19T04:24:55;101144.97;;;-2.11;40.53
61906;BME280;47863;55.766;37.672;2023-03-19T04:27:20;101147.91;;;-1.93;40.05
61906;BME280;47863;55.766;37.672;2023-03-19T04:29:46;101152.19;;;-1.63;39.64
61906;BME280;47863;55.766;37.672;2023-03-19T04:32:12;101159.47;;;-1.19;39.38
61906;BME280;47863;55.766;37.672;2023-03-19T04:34:37;101139.84;;;-0.84;39.01
61906;BME280;47863;55.766;37.672;2023-03-19T04:37:03;101154.16;;;-0.20;39.24
61906;BME280;47863;55.766;37.672;2023-03-19T04:39:28;101132.00;;;0.30;38.69
61906;BME280;47863;55.766;37.672;2023-03-19T04:41:54;101149.66;;;1.11;38.09
61906;BME280;47863;55.766;37.672;2023-03-19T04:44:20;101123.41;;;1.67;38.12
61906;BME280;47863;55.766;37.672;2023-03-19T04:46:46;101143.75;;;2.39;37.98
61906;BME280;47863;55.766;37.672;2023-03-19T04:49:11;101143.38;;;2.82;37.85
61906;BME280;47863;55.766;37.672;2023-03-19T04:51:37;101130.91;;;3.01;37.81
61906;BME280;47863;55.766;37.672;2023-03-19T04:54:03;101149.56;;;3.15;37.95
61906;BME280;47863;55.766;37.672;2023-03-19T04:56:30;101130.69;;;2.88;38.20
61906;BME280;47863;55.766;37.672;2023-03-19T04:58:56;101140.34;;;2.72;38.69
61906;BME280;47863;55.766;37.672;2023-03-19T05:01:22;101146.53;;;2.36;38.60
61906;BME280;47863;55.766;37.672;2023-03-19T05:03:48;101143.72;;;2.03;38.98
61906;BME280;47863;55.766;37.672;2023-03-19T05:06:14;101142.88;;;1.83;38.88
61906;BME280;47863;55.766;37.672;2023-03-19T05:08:41;101145.25;;;1.70;39.40
61906;BME280;47863;55.766;37.672;2023-03-19T05:11:06;101147.59;;;1.57;39.05
61906;BME280;47863;55.766;37.672;2023-03-19T05:13:32;101139.16;;;1.49;38.82
61906;BME280;47863;55.766;37.672;2023-03-19T05:15:57;101130.78;;;1.60;38.51
61906;BME280;47863;55.766;37.672;2023-03-19T05:18:24;101110.44;;;1.62;38.21
61906;BME280;47863;55.766;37.672;2023-03-19T05:20:50;101126.88;;;2.05;38.12
61906;BME280;47863;55.766;37.672;2023-03-19T05:23:15;101137.22;;;2.46;37.51
61906;BME280;47863;55.766;37.672;2023-03-19T05:25:42;101136.78;;;2.90;37.21
61906;BME280;47863;55.766;37.672;2023-03-19T05:28:08;101131.78;;;3.35;37.17
61906;BME280;47863;55.766;37.672;2023-03-19T05:30:34;101122.78;;;4.03;36.67
61906;BME280;47863;55.766;37.672;2023-03-19T05:33:00;101109.34;;;4.52;36.66
61906;BME280;47863;55.766;37.672;2023-03-19T05:35:28;101125.16;;;4.84;36.51
61906;BME280;47863;55.766;37.672;2023-03-19T05:37:54;101120.72;;;4.84;37.19
61906;BME280;47863;55.766;37.672;2023-03-19T05:40:20;101107.06;;;4.76;37.61
61906;BME280;47863;55.766;37.672;2023-03-19T05:42:46;101115.78;;;4.78;37.62
61906;BME280;47863;55.766;37.672;2023-03-19T05:45:12;101098.59;;;4.69;37.51
61906;BME280;47863;55.766;37.672;2023-03-19T05:47:38;101113.28;;;4.61;37.83
61906;BME280;47863;55.766;37.672;2023-03-19T05:50:04;101111.53;;;4.45;37.75
61906;BME280;47863;55.766;37.672;2023-03-19T05:52:30;101081.88;;;4.23;37.84
61906;BME280;47863;55.766;37.672;2023-03-19T05:54:56;101103.69;;;4.58;37.20
61906;BME280;47863;55.766;37.672;2023-03-19T05:57:21;101083.41;;;5.02;36.45
61906;BME280;47863;55.766;37.672;2023-03-19T05:59:47;101086.25;;;5.42;36.48
61906;BME280;47863;55.766;37.672;2023-03-19T06:02:12;101087.03;;;5.85;35.70
61906;BME280;47863;55.766;37.672;2023-03-19T06:04:38;101094.50;;;6.07;35.50
61906;BME280;47863;55.766;37.672;2023-03-19T06:07:03;101072.06;;;6.11;35.04
61906;BME280;47863;55.766;37.672;2023-03-19T06:09:30;101084.75;;;6.61;34.79
61906;BME280;47863;55.766;37.672;2023-03-19T06:11:55;101082.66;;;6.91;34.48
61906;BME280;47863;55.766;37.672;2023-03-19T06:14:22;101053.66;;;7.00;34.07
61906;BME280;47863;55.766;37.672;2023-03-19T06:16:48;101084.13;;;7.34;34.03
61906;BME280;47863;55.766;37.672;2023-03-19T06:19:13;101083.28;;;7.33;34.02
61906;BME280;47863;55.766;37.672;2023-03-19T06:21:39;101028.81;;;7.25;33.82
61906;BME280;47863;55.766;37.672;2023-03-19T06:24:05;101061.69;;;7.62;34.07
61906;BME280;47863;55.766;37.672;2023-03-19T06:26:33;101033.41;;;7.60;33.55
61906;BME280;47863;55.766;37.672;2023-03-19T06:28:58;101067.25;;;7.83;33.47
61906;BME280;47863;55.766;37.672;2023-03-19T06:31:24;101027.81;;;7.75;33.35
61906;BME280;47863;55.766;37.672;2023-03-19T06:33:50;101049.16;;;8.00;33.43
61906;BME280;47863;55.766;37.672;2023-03-19T06:36:16;101058.22;;;8.21;33.32
61906;BME280;47863;55.766;37.672;2023-03-19T06:38:42;101038.44;;;8.12;33.50
61906;BME280;47863;55.766;37.672;2023-03-19T06:41:07;101046.88;;;8.30;33.27
61906;BME280;47863;55.766;37.672;2023-03-19T06:43:33;101055.88;;;8.41;33.20
61906;BME280;47863;55.766;37.672;2023-03-19T06:46:02;101044.00;;;8.69;32.86
61906;BME280;47863;55.766;37.672;2023-03-19T06:48:28;101026.56;;;8.99;32.78
61906;BME280;47863;55.766;37.672;2023-03-19T06:50:53;101049.84;;;9.42;32.42
61906;BME280;47863;55.766;37.672;2023-03-19T06:53:19;101039.22;;;9.85;32.31
61906;BME280;47863;55.766;37.672;2023-03-19T06:55:45;101046.75;;;10.24;32.27
61906;BME280;47863;55.766;37.672;2023-03-19T06:58:11;101051.53;;;10.52;32.01
61906;BME280;47863;55.766;37.672;2023-03-19T07:00:36;101017.91;;;10.90;31.82
61906;BME280;47863;55.766;37.672;2023-03-19T07:03:02;101042.59;;;11.56;31.44
61906;BME280;47863;55.766;37.672;2023-03-19T07:05:27;101031.09;;;11.94;31.09
61906;BME280;47863;55.766;37.672;2023-03-19T07:07:53;101039.28;;;12.70;30.70
61906;BME280;47863;55.766;37.672;2023-03-19T07:10:20;101027.22;;;13.59;30.01
61906;BME280;47863;55.766;37.672;2023-03-19T07:12:46;101029.94;;;14.49;29.53
61906;BME280;47863;55.766;37.672;2023-03-19T07:15:11;101019.88;;;15.38;28.96
61906;BME280;47863;55.766;37.672;2023-03-19T07:17:37;101025.53;;;16.28;28.22
61906;BME280;47863;55.766;37.672;2023-03-19T07:20:03;101025.25;;;17.20;27.79
61906;BME280;47863;55.766;37.672;2023-03-19T07:22:29;101013.25;;;18.16;27.22
61906;BME280;47863;55.766;37.672;2023-03-19T07:24:55;101019.44;;;19.31;26.51
61906;BME280;47863;55.766;37.672;2023-03-19T07:27:20;101022.88;;;20.06;25.79
61906;BME280;47863;55.766;37.672;2023-03-19T07:29:46;101012.00;;;21.05;24.99
61906;BME280;47863;55.766;37.672;2023-03-19T07:32:11;101008.63;;;22.13;24.97
61906;BME280;47863;55.766;37.672;2023-03-19T07:34:37;101020.88;;;22.70;23.61
61906;BME280;47863;55.766;37.672;2023-03-19T07:37:03;101021.47;;;22.92;23.12
61906;BME280;47863;55.766;37.672;2023-03-19T07:39:28;100994.56;;;22.96;23.11
61906;BME280;47863;55.766;37.672;2023-03-19T07:41:54;101021.84;;;23.29;21.45
61906;BME280;47863;55.766;37.672;2023-03-19T07:44:19;100997.66;;;23.71;20.83
61906;BME280;47863;55.766;37.672;2023-03-19T07:46:45;101008.81;;;24.40;21.00
61906;BME280;47863;55.766;37.672;2023-03-19T07:49:10;101009.75;;;25.03;20.69
61906;BME280;47863;55.766;37.672;2023-03-19T07:51:36;101004.97;;;25.53;20.48
61906;BME280;47863;55.766;37.672;2023-03-19T07:54:01;101012.00;;;25.80;20.15
61906;BME280;47863;55.766;37.672;2023-03-19T07:56:27;101003.75;;;25.98;20.11
61906;BME280;47863;55.766;37.672;2023-03-19T07:58:52;101011.91;;;25.86;19.83
61906;BME280;47863;55.766;37.672;2023-03-19T08:01:18;101005.13;;;25.89;19.87
61906;BME280;47863;55.766;37.672;2023-03-19T08:03:44;101011.59;;;25.95;19.37
61906;BME280;47863;55.766;37.672;2023-03-19T08:06:09;101009.66;;;26.14;19.67
61906;BME280;47863;55.766;37.672;2023-03-19T08:08:35;101004.34;;;26.54;19.39
61906;BME280;47863;55.766;37.672;2023-03-19T08:11:02;101006.88;;;27.03;19.17
61906;BME280;47863;55.766;37.672;2023-03-19T08:13:27;100997.63;;;27.21;18.53
61906;BME280;47863;55.766;37.672;2023-03-19T08:15:53;100995.03;;;27.26;18.34
61906;BME280;47863;55.766;37.672;2023-03-19T08:18:21;100979.41;;;27.55;18.22
61906;BME280;47863;55.766;37.672;2023-03-19T08:20:47;100963.06;;;27.65;17.82
61906;BME280;47863;55.766;37.672;2023-03-19T08:23:12;100987.78;;;27.89;17.99
61906;BME280;47863;55.766;37.672;2023-03-19T08:25:38;100963.91;;;27.37;17.84
61906;BME280;47863;55.766;37.672;2023-03-19T08:28:04;100975.06;;;27.07;17.69
61906;BME280;47863;55.766;37.672;2023-03-19T08:30:29;100916.91;;;26.51;17.77
61906;BME280;47863;55.766;37.672;2023-03-19T08:32:56;100949.31;;;26.61;17.62
61906;BME280;47863;55.766;37.672;2023-03-19T08:35:22;100924.59;;;26.61;17.14
61906;BME280;47863;55.766;37.672;2023-03-19T08:37:48;100962.16;;;27.19;16.94
61906;BME280;47863;55.766;37.672;2023-03-19T08:40:14;100931.78;;;27.26;16.82
61906;BME280;47863;55.766;37.672;2023-03-19T08:42:39;100937.53;;;27.01;17.18
61906;BME280;47863;55.766;37.672;2023-03-19T08:45:09;100955.84;;;26.71;16.55
61906;BME280;47863;55.766;37.672;2023-03-19T08:47:34;100930.19;;;26.42;16.79
61906;BME280;47863;55.766;37.672;2023-03-19T08:50:00;100942.00;;;26.43;16.81
61906;BME280;47863;55.766;37.672;2023-03-19T08:52:25;100944.63;;;26.73;16.46
61906;BME280;47863;55.766;37.672;2023-03-19T08:54:51;100932.84;;;27.25;15.92
61906;BME280;47863;55.766;37.672;2023-03-19T08:57:17;100934.56;;;27.72;16.01
61906;BME280;47863;55.766;37.672;2023-03-19T08:59:42;100897.94;;;27.71;15.72
61906;BME280;47863;55.766;37.672;2023-03-19T09:02:11;100924.22;;;28.24;15.44
61906;BME280;47863;55.766;37.672;2023-03-19T09:04:41;100908.50;;;27.91;15.32
61906;BME280;47863;55.766;37.672;2023-03-19T09:07:07;100916.06;;;27.38;15.37
61906;BME280;47863;55.766;37.672;2023-03-19T09:09:32;100917.81;;;27.04;15.38
61906;BME280;47863;55.766;37.672;2023-03-19T09:11:58;100908.44;;;26.76;15.52
61906;BME280;47863;55.766;37.672;2023-03-19T09:14:23;100898.72;;;26.85;15.73
61906;BME280;47863;55.766;37.672;2023-03-19T09:16:49;100897.53;;;26.81;15.50
61906;BME280;47863;55.766;37.672;2023-03-19T09:19:15;100869.75;;;27.06;15.30
61906;BME280;47863;55.766;37.672;2023-03-19T09:21:41;100879.53;;;27.43;15.08
61906;BME280;47863;55.766;37.672;2023-03-19T09:24:07;100881.81;;;27.46;14.90
61906;BME280;47863;55.766;37.672;2023-03-19T09:26:33;100881.22;;;27.44;15.20
61906;BME280;47863;55.766;37.672;2023-03-19T09:28:58;100843.78;;;27.43;14.93
61906;BME280;47863;55.766;37.672;2023-03-19T09:31:24;100863.38;;;27.18;14.38
61906;BME280;47863;55.766;37.672;2023-03-19T09:33:50;100867.09;;;26.59;14.68
61906;BME280;47863;55.766;37.672;2023-03-19T09:36:15;100867.00;;;26.30;14.30
61906;BME280;47863;55.766;37.672;2023-03-19T09:38:41;100881.25;;;25.85;14.43
61906;BME280;47863;55.766;37.672;2023-03-19T09:44:16;100855.44;;;25.63;13.85
61906;BME280;47863;55.766;37.672;2023-03-19T09:47:32;100880.00;;;26.11;14.11
61906;BME280;47863;55.766;37.672;2023-03-19T09:49:37;100881.53;;;25.96;14.05
61906;BME280;47863;55.766;37.672;2023-03-19T09:54:31;100865.16;;;25.89;14.38
61906;BME280;47863;55.766;37.672;2023-03-19T09:56:58;100848.09;;;25.99;14.53
61906;BME280;47863;55.766;37.672;2023-03-19T09:59:25;100874.88;;;26.03;14.58
61906;BME280;47863;55.766;37.672;2023-03-19T10:13:41;100857.47;;;24.33;14.42
61906;BME280;47863;55.766;37.672;2023-03-19T10:16:15;100853.94;;;24.51;14.64
61906;BME280;47863;55.766;37.672;2023-03-19T10:18:46;100850.88;;;24.78;14.51
61906;BME280;47863;55.766;37.672;2023-03-19T10:26:31;100848.38;;;24.94;14.35
61906;BME280;47863;55.766;37.672;2023-03-19T10:29:09;100846.00;;;25.59;14.27
61906;BME280;47863;55.766;37.672;2023-03-19T10:35:01;100839.03;;;26.34;14.04
61906;BME280;47863;55.766;37.672;2023-03-19T10:37:33;100844.44;;;26.17;14.11
61906;BME280;47863;55.766;37.672;2023-03-19T10:40:00;100815.41;;;26.33;14.36
61906;BME280;47863;55.766;37.672;2023-03-19T10:42:48;100828.66;;;27.00;14.41
61906;BME280;47863;55.766;37.672;2023-03-19T10:45:27;100833.16;;;26.65;13.82
61906;BME280;47863;55.766;37.672;2023-03-19T10:47:54;100830.34;;;26.25;14.37
61906;BME280;47863;55.766;37.672;2023-03-19T10:53:33;100815.44;;;26.85;14.45
61906;BME280;47863;55.766;37.672;2023-03-19T10:56:03;100811.44;;;27.33;14.20
61906;BME280;47863;55.766;37.672;2023-03-19T10:58:31;100817.22;;;27.20;14.47
61906;BME280;47863;55.766;37.672;2023-03-19T11:01:08;100809.53;;;26.93;14.09
61906;BME280;47863;55.766;37.672;2023-03-19T11:03:48;100809.66;;;26.98;14.54
61906;BME280;47863;55.766;37.672;2023-03-19T11:06:27;100811.16;;;26.77;14.47
61906;BME280;47863;55.766;37.672;2023-03-19T11:08:58;100801.31;;;26.41;14.60
61906;BME280;47863;55.766;37.672;2023-03-19T11:11:50;100798.22;;;26.02;14.83
61906;BME280;47863;55.766;37.672;2023-03-19T11:14:20;100797.22;;;25.72;14.79
61906;BME280;47863;55.766;37.672;2023-03-19T11:17:04;100787.75;;;25.45;14.76
61906;BME280;47863;55.766;37.672;2023-03-19T11:19:39;100791.28;;;25.76;14.56
61906;BME280;47863;55.766;37.672;2023-03-19T11:22:14;100785.19;;;25.85;14.44
61906;BME280;47863;55.766;37.672;2023-03-19T11:24:48;100784.97;;;25.75;14.00
61906;BME280;47863;55.766;37.672;2023-03-19T11:27:15;100776.47;;;25.77;14.85
61906;BME280;47863;55.766;37.672;2023-03-19T11:29:42;100768.84;;;25.79;14.57
61906;BME280;47863;55.766;37.672;2023-03-19T11:35:02;100769.50;;;25.27;15.11
61906;BME280;47863;55.766;37.672;2023-03-19T11:40:43;100771.97;;;24.86;14.84
61906;BME280;47863;55.766;37.672;2023-03-19T11:43:33;100763.09;;;24.72;15.27
61906;BME280;47863;55.766;37.672;2023-03-19T11:51:33;100753.88;;;24.11;15.24
61906;BME280;47863;55.766;37.672;2023-03-19T11:57:07;100746.56;;;23.36;15.33
61906;BME280;47863;55.766;37.672;2023-03-19T12:05:22;100736.56;;;23.49;15.52
61906;BME280;47863;55.766;37.672;2023-03-19T12:10:58;100738.94;;;23.13;15.92
61906;BME280;47863;55.766;37.672;2023-03-19T12:16:18;100722.84;;;22.60;16.23
61906;BME280;47863;55.766;37.672;2023-03-19T12:22:23;100715.41;;;22.22;16.05
61906;BME280;47863;55.766;37.672;2023-03-19T12:30:14;100699.88;;;20.56;16.86
61906;BME280;47863;55.766;37.672;2023-03-19T12:35:15;100684.00;;;20.66;16.78
61906;BME280;47863;55.766;37.672;2023-03-19T12:40:44;100687.38;;;20.20;17.05
61906;BME280;47863;55.766;37.672;2023-03-19T12:46:11;100674.31;;;18.89;17.84
61906;BME280;47863;55.766;37.672;2023-03-19T12:48:55;100668.38;;;18.64;18.04
61906;BME280;47863;55.766;37.672;2023-03-19T12:51:28;100649.63;;;18.84;17.91
61906;BME280;47863;55.766;37.672;2023-03-19T12:54:05;100658.91;;;19.18;17.83
61906;BME280;47863;55.766;37.672;2023-03-19T12:59:13;100650.44;;;18.63;18.18
61906;BME280;47863;55.766;37.672;2023-03-19T13:01:48;100648.75;;;18.40;18.28
61906;BME280;47863;55.766;37.672;2023-03-19T13:04:23;100654.47;;;18.31;18.31
61906;BME280;47863;55.766;37.672;2023-03-19T13:07:04;100640.22;;;17.92;18.51
61906;BME280;47863;55.766;37.672;2023-03-19T13:12:34;100623.44;;;16.68;19.16
61906;BME280;47863;55.766;37.672;2023-03-19T13:15:13;100625.00;;;16.39;19.58
61906;BME280;47863;55.766;37.672;2023-03-19T13:18:00;100633.91;;;16.17;19.77
61906;BME280;47863;55.766;37.672;2023-03-19T13:23:30;100626.06;;;15.43;20.73
61906;BME280;47863;55.766;37.672;2023-03-19T13:25:59;100626.41;;;15.40;20.12
61906;BME280;47863;55.766;37.672;2023-03-19T13:28:34;100629.97;;;15.40;20.26
61906;BME280;47863;55.766;37.672;2023-03-19T13:33:29;100617.56;;;14.15;21.24
61906;BME280;47863;55.766;37.672;2023-03-19T13:35:56;100627.31;;;13.65;21.86
61906;BME280;47863;55.766;37.672;2023-03-19T13:38:27;100629.09;;;13.04;22.44
61906;BME280;47863;55.766;37.672;2023-03-19T13:40:57;100621.38;;;12.65;22.43
61906;BME280;47863;55.766;37.672;2023-03-19T13:46:03;100618.50;;;11.85;23.10
61906;BME280;47863;55.766;37.672;2023-03-19T13:51:23;100615.06;;;10.20;25.14
61906;BME280;47863;55.766;37.672;2023-03-19T13:56:26;100590.09;;;8.56;25.60
61906;BME280;47863;55.766;37.672;2023-03-19T13:59:21;100612.56;;;8.10;25.54
61906;BME280;47863;55.766;37.672;2023-03-19T14:01:48;100607.03;;;7.68;25.66
61906;BME280;47863;55.766;37.672;2023-03-19T14:04:27;100606.69;;;7.39;25.71
61906;BME280;47863;55.766;37.672;2023-03-19T14:14:39;100586.44;;;6.67;27.07
61906;BME280;47863;55.766;37.672;2023-03-19T14:17:13;100573.22;;;6.54;27.43
61906;BME280;47863;55.766;37.672;2023-03-19T14:19:40;100576.47;;;6.46;27.31
61906;BME280;47863;55.766;37.672;2023-03-19T14:22:20;100586.09;;;6.36;27.90
61906;BME280;47863;55.766;37.672;2023-03-19T14:25:19;100577.69;;;6.18;26.71
61906;BME280;47863;55.766;37.672;2023-03-19T14:27:50;100580.50;;;6.04;27.64
61906;BME280;47863;55.766;37.672;2023-03-19T14:30:36;100578.31;;;5.85;27.96
61906;BME280;47863;55.766;37.672;2023-03-19T14:33:05;100558.16;;;5.56;27.35